sensor_id;sensor_type;location;lat;lon;timestamp;P1;durP1;ratioP1;P2;durP2;ratioP2
18592;SDS011;9426;54.118;17.948;2023-04-06T00:02:30;68.20;;;28.47;;
18592;SDS011;9426;54.118;17.948;2023-04-06T00:08:13;56.67;;;21.60;;
18592;SDS011;9426;54.118;17.948;2023-04-06T00:13:37;45.80;;;19.50;;
18592;SDS011;9426;54.118;17.948;2023-04-06T00:19:01;48.13;;;19.73;;
18592;SDS011;9426;54.118;17.948;2023-04-06T00:24:26;44.80;;;18.50;;
18592;SDS011;9426;54.118;17.948;2023-04-06T00:29:49;64.57;;;25.13;;
18592;SDS011;9426;54.118;17.948;2023-04-06T00:35:13;45.77;;;19.87;;
18592;SDS011;9426;54.118;17.948;2023-04-06T00:40:38;45.33;;;19.27;;
18592;SDS011;9426;54.118;17.948;2023-04-06T00:46:02;38.50;;;17.93;;
18592;SDS011;9426;54.118;17.948;2023-04-06T00:51:26;44.80;;;19.43;;
18592;SDS011;9426;54.118;17.948;2023-04-06T00:56:51;39.17;;;18.53;;
18592;SDS011;9426;54.118;17.948;2023-04-06T01:02:15;37.70;;;16.10;;
18592;SDS011;9426;54.118;17.948;2023-04-06T01:07:42;39.80;;;17.43;;
18592;SDS011;9426;54.118;17.948;2023-04-06T01:13:12;35.53;;;15.30;;
18592;SDS011;9426;54.118;17.948;2023-04-06T01:18:48;35.13;;;15.43;;
18592;SDS011;9426;54.118;17.948;2023-04-06T01:24:22;44.87;;;18.53;;
18592;SDS011;9426;54.118;17.948;2023-04-06T01:30:01;41.13;;;17.60;;
18592;SDS011;9426;54.118;17.948;2023-04-06T01:35:39;55.10;;;20.87;;
18592;SDS011;9426;54.118;17.948;2023-04-06T01:41:10;58.60;;;20.30;;
18592;SDS011;9426;54.118;17.948;2023-04-06T01:46:42;53.33;;;20.37;;
18592;SDS011;9426;54.118;17.948;2023-04-06T01:52:10;44.93;;;17.57;;
18592;SDS011;9426;54.118;17.948;2023-04-06T01:57:40;35.17;;;15.60;;
18592;SDS011;9426;54.118;17.948;2023-04-06T02:03:11;39.43;;;14.80;;
18592;SDS011;9426;54.118;17.948;2023-04-06T02:08:36;36.97;;;17.20;;
18592;SDS011;9426;54.118;17.948;2023-04-06T02:14:01;38.03;;;18.67;;
18592;SDS011;9426;54.118;17.948;2023-04-06T02:19:30;32.57;;;16.50;;
18592;SDS011;9426;54.118;17.948;2023-04-06T02:24:53;34.20;;;15.07;;
18592;SDS011;9426;54.118;17.948;2023-04-06T02:30:19;31.97;;;15.03;;
18592;SDS011;9426;54.118;17.948;2023-04-06T02:35:43;38.90;;;16.07;;
18592;SDS011;9426;54.118;17.948;2023-04-06T02:41:07;35.90;;;15.93;;
18592;SDS011;9426;54.118;17.948;2023-04-06T02:46:33;35.57;;;15.50;;
18592;SDS011;9426;54.118;17.948;2023-04-06T02:51:57;33.97;;;16.10;;
18592;SDS011;9426;54.118;17.948;2023-04-06T02:57:25;37.07;;;16.50;;
18592;SDS011;9426;54.118;17.948;2023-04-06T03:02:50;38.70;;;16.90;;
18592;SDS011;9426;54.118;17.948;2023-04-06T03:08:14;42.80;;;17.67;;
18592;SDS011;9426;54.118;17.948;2023-04-06T03:13:39;36.03;;;17.23;;
18592;SDS011;9426;54.118;17.948;2023-04-06T03:19:05;45.70;;;18.80;;
18592;SDS011;9426;54.118;17.948;2023-04-06T03:24:30;46.47;;;19.93;;
18592;SDS011;9426;54.118;17.948;2023-04-06T03:29:54;45.97;;;19.87;;
18592;SDS011;9426;54.118;17.948;2023-04-06T03:35:25;48.53;;;20.50;;
18592;SDS011;9426;54.118;17.948;2023-04-06T03:40:50;47.33;;;22.10;;
18592;SDS011;9426;54.118;17.948;2023-04-06T03:46:18;47.07;;;20.30;;
18592;SDS011;9426;54.118;17.948;2023-04-06T03:51:47;47.60;;;21.20;;
18592;SDS011;9426;54.118;17.948;2023-04-06T03:57:10;50.33;;;22.17;;
18592;SDS011;9426;54.118;17.948;2023-04-06T04:02:34;50.77;;;21.23;;
18592;SDS011;9426;54.118;17.948;2023-04-06T04:07:59;44.97;;;20.10;;
18592;SDS011;9426;54.118;17.948;2023-04-06T04:13:22;45.60;;;20.83;;
18592;SDS011;9426;54.118;17.948;2023-04-06T04:18:46;43.13;;;18.80;;
18592;SDS011;9426;54.118;17.948;2023-04-06T04:24:11;42.40;;;18.70;;
18592;SDS011;9426;54.118;17.948;2023-04-06T04:29:35;46.57;;;19.30;;
18592;SDS011;9426;54.118;17.948;2023-04-06T04:35:03;56.20;;;20.37;;
18592;SDS011;9426;54.118;17.948;2023-04-06T04:40:32;50.60;;;20.03;;
18592;SDS011;9426;54.118;17.948;2023-04-06T04:46:01;54.03;;;21.10;;
18592;SDS011;9426;54.118;17.948;2023-04-06T04:51:32;54.00;;;24.30;;
18592;SDS011;9426;54.118;17.948;2023-04-06T04:57:08;53.07;;;22.47;;
18592;SDS011;9426;54.118;17.948;2023-04-06T05:02:34;52.17;;;23.10;;
18592;SDS011;9426;54.118;17.948;2023-04-06T05:08:12;58.90;;;24.97;;
18592;SDS011;9426;54.118;17.948;2023-04-06T05:13:42;61.90;;;27.67;;
18592;SDS011;9426;54.118;17.948;2023-04-06T05:19:13;66.57;;;25.87;;
18592;SDS011;9426;54.118;17.948;2023-04-06T05:24:39;63.50;;;28.03;;
18592;SDS011;9426;54.118;17.948;2023-04-06T05:30:05;72.37;;;30.20;;
18592;SDS011;9426;54.118;17.948;2023-04-06T05:35:36;72.00;;;31.50;;
18592;SDS011;9426;54.118;17.948;2023-04-06T05:41:04;89.63;;;36.47;;
18592;SDS011;9426;54.118;17.948;2023-04-06T05:46:31;89.77;;;38.20;;
18592;SDS011;9426;54.118;17.948;2023-04-06T05:51:55;81.07;;;36.40;;
18592;SDS011;9426;54.118;17.948;2023-04-06T05:57:18;77.20;;;32.70;;
18592;SDS011;9426;54.118;17.948;2023-04-06T06:02:44;84.70;;;33.90;;
18592;SDS011;9426;54.118;17.948;2023-04-06T06:08:13;87.87;;;35.27;;
18592;SDS011;9426;54.118;17.948;2023-04-06T06:13:37;82.07;;;32.13;;
18592;SDS011;9426;54.118;17.948;2023-04-06T06:19:06;48.53;;;21.80;;
18592;SDS011;9426;54.118;17.948;2023-04-06T06:24:31;40.07;;;18.17;;
18592;SDS011;9426;54.118;17.948;2023-04-06T06:29:55;38.17;;;18.50;;
18592;SDS011;9426;54.118;17.948;2023-04-06T06:35:20;47.43;;;21.27;;
18592;SDS011;9426;54.118;17.948;2023-04-06T06:40:44;44.57;;;19.67;;
18592;SDS011;9426;54.118;17.948;2023-04-06T06:46:10;51.20;;;22.00;;
18592;SDS011;9426;54.118;17.948;2023-04-06T06:51:36;48.33;;;21.07;;
18592;SDS011;9426;54.118;17.948;2023-04-06T06:57:00;51.90;;;22.27;;
18592;SDS011;9426;54.118;17.948;2023-04-06T07:02:24;47.07;;;20.87;;
18592;SDS011;9426;54.118;17.948;2023-04-06T07:07:49;45.43;;;19.13;;
18592;SDS011;9426;54.118;17.948;2023-04-06T07:13:13;46.40;;;18.90;;
18592;SDS011;9426;54.118;17.948;2023-04-06T07:18:40;30.93;;;16.10;;
18592;SDS011;9426;54.118;17.948;2023-04-06T07:24:05;28.47;;;13.13;;
18592;SDS011;9426;54.118;17.948;2023-04-06T07:29:30;26.37;;;12.73;;
18592;SDS011;9426;54.118;17.948;2023-04-06T07:34:53;21.70;;;9.30;;
18592;SDS011;9426;54.118;17.948;2023-04-06T07:40:18;20.67;;;9.90;;
18592;SDS011;9426;54.118;17.948;2023-04-06T07:45:43;16.13;;;7.10;;
18592;SDS011;9426;54.118;17.948;2023-04-06T07:51:10;18.17;;;8.57;;
18592;SDS011;9426;54.118;17.948;2023-04-06T07:56:39;16.63;;;7.37;;
18592;SDS011;9426;54.118;17.948;2023-04-06T08:02:03;10.17;;;4.83;;
18592;SDS011;9426;54.118;17.948;2023-04-06T08:07:27;10.73;;;5.50;;
18592;SDS011;9426;54.118;17.948;2023-04-06T08:12:53;7.27;;;4.27;;
18592;SDS011;9426;54.118;17.948;2023-04-06T08:18:17;8.43;;;4.07;;
18592;SDS011;9426;54.118;17.948;2023-04-06T08:23:41;11.37;;;5.80;;
18592;SDS011;9426;54.118;17.948;2023-04-06T08:29:06;9.30;;;4.80;;
18592;SDS011;9426;54.118;17.948;2023-04-06T08:34:31;11.70;;;4.80;;
18592;SDS011;9426;54.118;17.948;2023-04-06T08:39:57;9.80;;;4.67;;
18592;SDS011;9426;54.118;17.948;2023-04-06T08:45:22;9.00;;;4.80;;
18592;SDS011;9426;54.118;17.948;2023-04-06T08:50:46;8.60;;;3.43;;
18592;SDS011;9426;54.118;17.948;2023-04-06T08:56:10;7.80;;;3.77;;
18592;SDS011;9426;54.118;17.948;2023-04-06T09:01:38;10.13;;;4.43;;
18592;SDS011;9426;54.118;17.948;2023-04-06T09:07:07;9.40;;;4.47;;
18592;SDS011;9426;54.118;17.948;2023-04-06T09:12:31;8.40;;;4.83;;
18592;SDS011;9426;54.118;17.948;2023-04-06T09:17:57;10.20;;;4.87;;
18592;SDS011;9426;54.118;17.948;2023-04-06T09:23:20;9.23;;;4.07;;
18592;SDS011;9426;54.118;17.948;2023-04-06T09:28:45;7.80;;;4.03;;
18592;SDS011;9426;54.118;17.948;2023-04-06T09:34:20;8.50;;;3.70;;
18592;SDS011;9426;54.118;17.948;2023-04-06T09:39:45;7.90;;;4.20;;
18592;SDS011;9426;54.118;17.948;2023-04-06T09:45:09;12.47;;;5.27;;
18592;SDS011;9426;54.118;17.948;2023-04-06T09:50:34;12.73;;;4.97;;
18592;SDS011;9426;54.118;17.948;2023-04-06T09:56:00;9.83;;;4.77;;
18592;SDS011;9426;54.118;17.948;2023-04-06T10:01:28;11.40;;;4.60;;
18592;SDS011;9426;54.118;17.948;2023-04-06T10:06:59;12.53;;;4.70;;
18592;SDS011;9426;54.118;17.948;2023-04-06T10:12:25;10.00;;;4.33;;
18592;SDS011;9426;54.118;17.948;2023-04-06T10:17:51;11.57;;;4.60;;
18592;SDS011;9426;54.118;17.948;2023-04-06T10:23:19;10.73;;;4.77;;
18592;SDS011;9426;54.118;17.948;2023-04-06T10:28:48;12.13;;;6.40;;
18592;SDS011;9426;54.118;17.948;2023-04-06T10:34:14;11.37;;;5.10;;
18592;SDS011;9426;54.118;17.948;2023-04-06T10:39:47;7.73;;;4.50;;
18592;SDS011;9426;54.118;17.948;2023-04-06T10:45:21;9.17;;;4.30;;
18592;SDS011;9426;54.118;17.948;2023-04-06T10:50:47;25.67;;;5.13;;
18592;SDS011;9426;54.118;17.948;2023-04-06T10:56:15;10.47;;;4.80;;
18592;SDS011;9426;54.118;17.948;2023-04-06T11:01:44;10.73;;;4.77;;
18592;SDS011;9426;54.118;17.948;2023-04-06T11:07:11;11.63;;;4.30;;
18592;SDS011;9426;54.118;17.948;2023-04-06T11:12:54;9.67;;;3.90;;
18592;SDS011;9426;54.118;17.948;2023-04-06T11:18:22;8.60;;;4.30;;
18592;SDS011;9426;54.118;17.948;2023-04-06T11:23:48;7.83;;;4.40;;
18592;SDS011;9426;54.118;17.948;2023-04-06T11:29:23;8.37;;;4.07;;
18592;SDS011;9426;54.118;17.948;2023-04-06T11:34:52;11.93;;;5.07;;
18592;SDS011;9426;54.118;17.948;2023-04-06T11:40:26;10.30;;;4.80;;
18592;SDS011;9426;54.118;17.948;2023-04-06T11:46:00;7.57;;;3.60;;
18592;SDS011;9426;54.118;17.948;2023-04-06T11:51:29;5.30;;;2.93;;
18592;SDS011;9426;54.118;17.948;2023-04-06T11:57:04;9.20;;;3.90;;
18592;SDS011;9426;54.118;17.948;2023-04-06T12:02:35;8.17;;;3.93;;
18592;SDS011;9426;54.118;17.948;2023-04-06T12:08:22;7.03;;;4.00;;
18592;SDS011;9426;54.118;17.948;2023-04-06T12:13:51;11.43;;;5.10;;
18592;SDS011;9426;54.118;17.948;2023-04-06T12:19:24;11.00;;;4.20;;
18592;SDS011;9426;54.118;17.948;2023-04-06T12:24:50;14.13;;;4.50;;
18592;SDS011;9426;54.118;17.948;2023-04-06T12:30:19;12.13;;;5.13;;
18592;SDS011;9426;54.118;17.948;2023-04-06T12:35:48;12.43;;;5.07;;
18592;SDS011;9426;54.118;17.948;2023-04-06T12:41:20;7.60;;;4.03;;
18592;SDS011;9426;54.118;17.948;2023-04-06T12:46:47;7.83;;;4.10;;
18592;SDS011;9426;54.118;17.948;2023-04-06T12:52:16;10.20;;;4.30;;
18592;SDS011;9426;54.118;17.948;2023-04-06T12:57:41;6.47;;;4.07;;
18592;SDS011;9426;54.118;17.948;2023-04-06T13:03:18;6.70;;;3.53;;
18592;SDS011;9426;54.118;17.948;2023-04-06T13:08:44;10.00;;;4.20;;
18592;SDS011;9426;54.118;17.948;2023-04-06T13:14:16;8.03;;;3.77;;
18592;SDS011;9426;54.118;17.948;2023-04-06T13:19:39;7.10;;;3.80;;
18592;SDS011;9426;54.118;17.948;2023-04-06T13:25:10;8.67;;;4.33;;
18592;SDS011;9426;54.118;17.948;2023-04-06T13:30:33;6.17;;;2.83;;
18592;SDS011;9426;54.118;17.948;2023-04-06T13:35:57;6.03;;;3.17;;
18592;SDS011;9426;54.118;17.948;2023-04-06T13:41:23;5.37;;;3.10;;
18592;SDS011;9426;54.118;17.948;2023-04-06T13:46:57;7.47;;;3.67;;
18592;SDS011;9426;54.118;17.948;2023-04-06T13:52:20;8.63;;;3.27;;
18592;SDS011;9426;54.118;17.948;2023-04-06T13:57:46;10.83;;;3.60;;
18592;SDS011;9426;54.118;17.948;2023-04-06T14:03:09;6.13;;;3.20;;
18592;SDS011;9426;54.118;17.948;2023-04-06T14:08:33;9.70;;;3.60;;
18592;SDS011;9426;54.118;17.948;2023-04-06T14:13:57;39.90;;;17.23;;
18592;SDS011;9426;54.118;17.948;2023-04-06T14:19:22;14.30;;;6.97;;
18592;SDS011;9426;54.118;17.948;2023-04-06T14:24:45;23.57;;;11.67;;
18592;SDS011;9426;54.118;17.948;2023-04-06T14:30:11;7.93;;;3.80;;
18592;SDS011;9426;54.118;17.948;2023-04-06T14:35:37;9.90;;;3.97;;
18592;SDS011;9426;54.118;17.948;2023-04-06T14:41:01;7.67;;;3.50;;
18592;SDS011;9426;54.118;17.948;2023-04-06T14:46:26;11.50;;;5.47;;
18592;SDS011;9426;54.118;17.948;2023-04-06T14:51:50;7.63;;;4.50;;
18592;SDS011;9426;54.118;17.948;2023-04-06T14:57:14;8.80;;;3.13;;
18592;SDS011;9426;54.118;17.948;2023-04-06T15:02:39;20.47;;;9.03;;
18592;SDS011;9426;54.118;17.948;2023-04-06T15:08:04;16.37;;;5.80;;
18592;SDS011;9426;54.118;17.948;2023-04-06T15:13:28;11.23;;;3.47;;
18592;SDS011;9426;54.118;17.948;2023-04-06T15:18:54;8.33;;;3.23;;
18592;SDS011;9426;54.118;17.948;2023-04-06T15:24:18;8.93;;;4.20;;
18592;SDS011;9426;54.118;17.948;2023-04-06T15:29:43;13.27;;;6.50;;
18592;SDS011;9426;54.118;17.948;2023-04-06T15:35:12;9.77;;;4.00;;
18592;SDS011;9426;54.118;17.948;2023-04-06T15:40:42;6.70;;;2.97;;
18592;SDS011;9426;54.118;17.948;2023-04-06T15:46:07;6.50;;;2.80;;
18592;SDS011;9426;54.118;17.948;2023-04-06T15:51:33;15.97;;;6.80;;
18592;SDS011;9426;54.118;17.948;2023-04-06T15:56:57;9.03;;;4.83;;
18592;SDS011;9426;54.118;17.948;2023-04-06T16:02:21;10.27;;;4.40;;
18592;SDS011;9426;54.118;17.948;2023-04-06T16:07:51;17.33;;;7.03;;
18592;SDS011;9426;54.118;17.948;2023-04-06T16:13:15;16.80;;;5.63;;
18592;SDS011;9426;54.118;17.948;2023-04-06T16:18:38;7.73;;;3.73;;
18592;SDS011;9426;54.118;17.948;2023-04-06T16:24:04;23.90;;;9.27;;
18592;SDS011;9426;54.118;17.948;2023-04-06T16:29:28;11.53;;;5.00;;
18592;SDS011;9426;54.118;17.948;2023-04-06T16:34:53;17.33;;;7.10;;
18592;SDS011;9426;54.118;17.948;2023-04-06T16:40:18;9.17;;;3.83;;
18592;SDS011;9426;54.118;17.948;2023-04-06T16:45:42;24.03;;;9.20;;
18592;SDS011;9426;54.118;17.948;2023-04-06T16:51:12;13.13;;;6.40;;
18592;SDS011;9426;54.118;17.948;2023-04-06T16:56:38;37.63;;;14.93;;
18592;SDS011;9426;54.118;17.948;2023-04-06T17:02:02;17.23;;;7.17;;
18592;SDS011;9426;54.118;17.948;2023-04-06T17:07:25;15.83;;;6.23;;
18592;SDS011;9426;54.118;17.948;2023-04-06T17:12:54;18.07;;;5.70;;
18592;SDS011;9426;54.118;17.948;2023-04-06T17:18:18;23.53;;;8.80;;
18592;SDS011;9426;54.118;17.948;2023-04-06T17:23:43;12.87;;;5.67;;
18592;SDS011;9426;54.118;17.948;2023-04-06T17:29:08;29.23;;;10.10;;
18592;SDS011;9426;54.118;17.948;2023-04-06T17:34:31;18.37;;;9.53;;
18592;SDS011;9426;54.118;17.948;2023-04-06T17:39:55;18.87;;;8.40;;
18592;SDS011;9426;54.118;17.948;2023-04-06T17:45:21;20.67;;;8.83;;
18592;SDS011;9426;54.118;17.948;2023-04-06T17:50:44;25.87;;;9.13;;
18592;SDS011;9426;54.118;17.948;2023-04-06T17:56:08;18.20;;;7.40;;
18592;SDS011;9426;54.118;17.948;2023-04-06T18:01:33;9.60;;;3.63;;
18592;SDS011;9426;54.118;17.948;2023-04-06T18:06:57;6.93;;;3.47;;
18592;SDS011;9426;54.118;17.948;2023-04-06T18:12:21;6.30;;;3.37;;
18592;SDS011;9426;54.118;17.948;2023-04-06T18:17:46;5.23;;;2.70;;
18592;SDS011;9426;54.118;17.948;2023-04-06T18:23:11;4.37;;;2.57;;
18592;SDS011;9426;54.118;17.948;2023-04-06T18:28:34;6.97;;;3.07;;
18592;SDS011;9426;54.118;17.948;2023-04-06T18:34:00;9.13;;;2.93;;
18592;SDS011;9426;54.118;17.948;2023-04-06T18:39:25;6.23;;;3.40;;
18592;SDS011;9426;54.118;17.948;2023-04-06T18:44:49;11.53;;;3.83;;
18592;SDS011;9426;54.118;17.948;2023-04-06T18:50:14;8.73;;;3.37;;
18592;SDS011;9426;54.118;17.948;2023-04-06T18:55:38;7.03;;;3.47;;
18592;SDS011;9426;54.118;17.948;2023-04-06T19:01:02;10.23;;;4.10;;
18592;SDS011;9426;54.118;17.948;2023-04-06T19:06:27;8.00;;;3.57;;
18592;SDS011;9426;54.118;17.948;2023-04-06T19:11:51;7.30;;;3.50;;
18592;SDS011;9426;54.118;17.948;2023-04-06T19:17:15;11.57;;;4.10;;
18592;SDS011;9426;54.118;17.948;2023-04-06T19:22:41;8.57;;;4.10;;
18592;SDS011;9426;54.118;17.948;2023-04-06T19:28:06;8.20;;;4.23;;
18592;SDS011;9426;54.118;17.948;2023-04-06T19:33:33;8.50;;;4.00;;
18592;SDS011;9426;54.118;17.948;2023-04-06T19:39:07;8.83;;;4.47;;
18592;SDS011;9426;54.118;17.948;2023-04-06T19:44:30;11.37;;;5.00;;
18592;SDS011;9426;54.118;17.948;2023-04-06T19:49:54;20.00;;;9.07;;
18592;SDS011;9426;54.118;17.948;2023-04-06T19:55:19;13.80;;;5.47;;
18592;SDS011;9426;54.118;17.948;2023-04-06T20:00:43;12.77;;;5.83;;
18592;SDS011;9426;54.118;17.948;2023-04-06T20:06:06;10.43;;;5.77;;
18592;SDS011;9426;54.118;17.948;2023-04-06T20:11:33;11.87;;;5.50;;
18592;SDS011;9426;54.118;17.948;2023-04-06T20:16:57;13.90;;;6.30;;
18592;SDS011;9426;54.118;17.948;2023-04-06T20:22:21;13.03;;;6.00;;
18592;SDS011;9426;54.118;17.948;2023-04-06T20:27:47;19.23;;;7.83;;
18592;SDS011;9426;54.118;17.948;2023-04-06T20:33:10;14.70;;;6.40;;
18592;SDS011;9426;54.118;17.948;2023-04-06T20:38:36;16.90;;;5.40;;
18592;SDS011;9426;54.118;17.948;2023-04-06T20:44:05;13.47;;;5.50;;
18592;SDS011;9426;54.118;17.948;2023-04-06T20:49:29;15.30;;;5.83;;
18592;SDS011;9426;54.118;17.948;2023-04-06T20:54:53;14.63;;;6.77;;
18592;SDS011;9426;54.118;17.948;2023-04-06T21:00:20;9.77;;;5.30;;
18592;SDS011;9426;54.118;17.948;2023-04-06T21:05:48;16.30;;;6.00;;
18592;SDS011;9426;54.118;17.948;2023-04-06T21:11:13;9.50;;;4.87;;
18592;SDS011;9426;54.118;17.948;2023-04-06T21:16:40;10.43;;;5.50;;
18592;SDS011;9426;54.118;17.948;2023-04-06T21:22:04;11.63;;;5.47;;
18592;SDS011;9426;54.118;17.948;2023-04-06T21:27:30;13.17;;;5.80;;
18592;SDS011;9426;54.118;17.948;2023-04-06T21:32:57;11.00;;;5.43;;
18592;SDS011;9426;54.118;17.948;2023-04-06T21:38:21;11.07;;;5.30;;
18592;SDS011;9426;54.118;17.948;2023-04-06T21:43:45;14.17;;;5.53;;
18592;SDS011;9426;54.118;17.948;2023-04-06T21:49:10;10.67;;;5.30;;
18592;SDS011;9426;54.118;17.948;2023-04-06T21:54:34;11.67;;;5.20;;
18592;SDS011;9426;54.118;17.948;2023-04-06T21:59:57;9.43;;;4.97;;
18592;SDS011;9426;54.118;17.948;2023-04-06T22:05:22;9.30;;;5.07;;
18592;SDS011;9426;54.118;17.948;2023-04-06T22:10:45;11.97;;;5.30;;
18592;SDS011;9426;54.118;17.948;2023-04-06T22:16:09;10.67;;;5.73;;
18592;SDS011;9426;54.118;17.948;2023-04-06T22:21:34;12.13;;;5.40;;
18592;SDS011;9426;54.118;17.948;2023-04-06T22:26:58;12.17;;;5.70;;
18592;SDS011;9426;54.118;17.948;2023-04-06T22:32:21;13.87;;;5.83;;
18592;SDS011;9426;54.118;17.948;2023-04-06T22:37:46;11.63;;;6.07;;
18592;SDS011;9426;54.118;17.948;2023-04-06T22:43:11;12.27;;;6.07;;
18592;SDS011;9426;54.118;17.948;2023-04-06T22:48:35;12.87;;;6.57;;
18592;SDS011;9426;54.118;17.948;2023-04-06T22:54:00;14.33;;;7.10;;
18592;SDS011;9426;54.118;17.948;2023-04-06T22:59:23;14.57;;;7.67;;
18592;SDS011;9426;54.118;17.948;2023-04-06T23:04:47;15.47;;;6.93;;
18592;SDS011;9426;54.118;17.948;2023-04-06T23:10:12;14.27;;;7.47;;
18592;SDS011;9426;54.118;17.948;2023-04-06T23:15:35;16.93;;;7.97;;
18592;SDS011;9426;54.118;17.948;2023-04-06T23:20:59;15.87;;;8.17;;
18592;SDS011;9426;54.118;17.948;2023-04-06T23:26:24;17.87;;;8.03;;
18592;SDS011;9426;54.118;17.948;2023-04-06T23:31:47;17.43;;;7.80;;
18592;SDS011;9426;54.118;17.948;2023-04-06T23:37:11;17.83;;;9.07;;
18592;SDS011;9426;54.118;17.948;2023-04-06T23:42:36;16.97;;;8.20;;
18592;SDS011;9426;54.118;17.948;2023-04-06T23:48:00;16.67;;;9.30;;
18592;SDS011;9426;54.118;17.948;2023-04-06T23:53:23;21.33;;;9.90;;
18592;SDS011;9426;54.118;17.948;2023-04-06T23:58:48;18.40;;;9.07;;
